Flight Track Log - Related Links

Times and Time Zones

All times are in EDT time to prevent confusion due to time zone crossing. See the EMD24 flight status page for this flight to view local times or setup timezone preferences in your user account.

Time Position Orientation Groundspeed Altitude Reporting Facility
EDT Latitude Longitude Course Direction KTS MPH feet Rate Location/Type
Thu 01:01:38 AM 39.7225 -99.1769 100° East 161 185 6,400  Level Denver Center
Thu 01:02:38 AM 39.7147 -99.1217 100° East 157 181 7,700 1,398 Climbing Denver Center
Thu 01:03:51 AM 39.7089 -99.0506 96° East 162 186 9,500 1,343 Climbing Denver Center
Thu 01:04:52 AM 39.7025 -98.9914 98° East 165 190 10,700 1,230 Climbing Denver Center
Thu 01:05:53 AM 39.6922 -98.9342 103° East 164 189 12,000 1,180 Climbing Denver Center
Thu 01:06:54 AM 39.6833 -98.8714 100° East 172 198 13,100 1,165 Climbing Denver Center
Thu 01:08:12 AM 39.6758 -98.7836 96° East 174 200 14,700 826 Climbing Minneapolis Center
Thu 01:09:12 AM 39.6722 -98.7158 94° East 179 206 15,000 150 Climbing Minneapolis Center
Thu 01:10:12 AM 39.6594 -98.6294 101° East 215 247 15,000 -50 Level Minneapolis Center
Thu 01:11:13 AM 39.6503 -98.5408 98° East 239 275 14,900  Descending Minneapolis Center
Thu 01:12:13 AM 39.6406 -98.4544 98° East 241 277 15,000 50 Climbing Minneapolis Center
Thu 01:13:14 AM 39.6306 -98.3692 99° East 241 277 15,000  Level Minneapolis Center
Thu 01:14:04 AM 39.6228 -98.2981 98° East 241 277 15,000  Level Kansas City Center
Thu 01:15:05 AM 39.6114 -98.2069 99° East 244 281 15,000  Level Kansas City Center
Thu 01:16:05 AM 39.6011 -98.1189 99° East 246 283 15,000 -50 Level Kansas City Center
Thu 01:17:06 AM 39.5919 -98.0300 98° East 247 284 14,900  Descending Kansas City Center
Thu 01:18:06 AM 39.5806 -97.9422 100° East 247 284 15,000 50 Climbing Kansas City Center
Thu 01:19:07 AM 39.5703 -97.8533 99° East 249 287 15,000 -50 Level Kansas City Center
Thu 01:20:07 AM 39.5597 -97.7664 99° East 245 282 14,900  Descending Kansas City Center
Thu 01:21:07 AM 39.5492 -97.6769 99° East 249 287 15,000 50 Climbing Kansas City Center
Thu 01:22:08 AM 39.5392 -97.5889 98° East 247 284 15,000  Level Kansas City Center
Thu 01:23:08 AM 39.5250 -97.4947 101° East 250 288 15,000  Level Kansas City Center
Thu 01:24:09 AM 39.5142 -97.4094 99° East 249 287 15,000  Level Kansas City Center
Thu 01:25:09 AM 39.5031 -97.3158 99° East 251 289 15,000  Level Kansas City Center
Thu 01:26:09 AM 39.4908 -97.2306 100° East 250 288 15,000  Level Kansas City Center
Thu 01:27:10 AM 39.4794 -97.1389 99° East 248 285 15,000  Level Kansas City Center
Thu 01:28:10 AM 39.4683 -97.0539 100° East 249 287 15,000  Level Kansas City Center
Thu 01:29:10 AM 39.4578 -96.9617 98° East 247 284 15,000  Level Kansas City Center
Thu 01:30:11 AM 39.4447 -96.8772 101° East 249 287 15,000  Level Kansas City Center
Thu 01:31:11 AM 39.4331 -96.7864 99° East 245 282 15,000  Level Kansas City Center
Thu 01:32:11 AM 39.4231 -96.7022 99° East 245 282 15,000  Level Kansas City Center
Thu 01:33:12 AM 39.4092 -96.6106 101° East 248 285 15,000 -50 Level Kansas City Center
Thu 01:34:12 AM 39.3969 -96.5253 100° East 249 287 14,900  Descending Kansas City Center
Thu 01:35:12 AM 39.3844 -96.4325 100° East 251 289 15,000 50 Climbing Kansas City Center
Thu 01:36:13 AM 39.3747 -96.3492 99° East 245 282 15,000  Level Kansas City Center
Thu 01:37:13 AM 39.3647 -96.2653 99° East 245 282 15,000  Level Kansas City Center
Thu 01:38:13 AM 39.3517 -96.1747 101° East 245 282 15,000 50 Level Kansas City Center
Thu 01:39:14 AM 39.3408 -96.0936 100° East 248 285 15,100 50 Climbing Kansas City Center
Thu 01:40:14 AM 39.3258 -96.0122 103° East 245 282 15,100 -50 Level Kansas City Center
Thu 01:41:14 AM 39.3156 -95.9147 98° East 245 282 15,000 -50 Descending Kansas City Center
Thu 01:42:15 AM 39.3044 -95.8319 100° East 244 281 15,000  Level Kansas City Center
Thu 01:43:15 AM 39.2917 -95.7497 101° East 244 281 15,000  Level Kansas City Center
Thu 01:44:15 AM 39.2786 -95.6536 100° East 244 281 15,000 50 Level Kansas City Center
Thu 01:45:15 AM 39.2672 -95.5706 100° East 246 283 15,100  Climbing Kansas City Center
Thu 01:46:15 AM 39.2561 -95.4875 100° East 246 283 15,000 -595 Descending Kansas City Center
Thu 01:47:16 AM 39.2392 -95.3914 103° East 261 300 13,900 -1,091 Descending Kansas City Center
Thu 01:48:16 AM 39.2267 -95.2917 99° East 275 316 12,800 -1,350 Descending Kansas City Center
Thu 01:49:16 AM 39.2142 -95.1942 99° East 265 305 11,200 -1,650 Descending Kansas City Center
Thu 01:50:16 AM 39.2039 -95.1106 99° East 252 290 9,500 -1,636 Descending Kansas City Center
Thu 01:51:17 AM 39.1942 -95.0289 99° East 242 278 7,900 -1,488 Descending Kansas City Center
Thu 01:52:17 AM 39.1842 -94.9483 99° East 239 275 6,500 -1,500 Descending Kansas City Center
Thu 01:53:17 AM 39.1675 -94.8617 104° East 224 258 4,900 -1,200 Descending Kansas City Center
Thu 01:54:17 AM 39.1656 -94.7886 92° East 214 246 4,100 -700 Descending Kansas City Center
Thu 01:55:17 AM 39.1639 -94.7236 92° East 192 221 3,500 -744 Descending Kansas City Center
Thu 01:56:18 AM 39.1564 -94.6631 99° East 177 204 2,600 -942 Descending Kansas City Center
Thu 01:57:18 AM 39.1581 -94.6044 88° East 145 167 1,600 -800 Descending Kansas City Center
Thu 01:58:18 AM 39.1325 -94.5856 150° Southeast 119 137 1,000 -600 Descending Kansas City Center
Thu 02:00:00 AM 39.1167 -94.5833 131° Southeast  Level FlightAware Approximate

Login

Don't have an account? Register now (free) for customized features, flight alerts, and more!